Time;durP1;ratioP1;P1;durP2;ratioP2;P2;SDS_P1;SDS_P2;PMS_P1;PMS_P2;Temp;Humidity;BMP_temperature;BMP_pressure;BME280_temperature;BME280_humidity;BME280_pressure;Samples;Min_cycle;Max_cycle;Signal;HPM_P1;HPM_P2
2023/06/05 00:01:55;;;;;;;2.63;1.50;;;18.00;54.20;;;;;;5125839;27;45292;-69
2023/06/05 00:04:23;;;;;;;4.30;1.48;;;18.00;54.50;;;;;;5126333;27;45327;-69
2023/06/05 00:06:50;;;;;;;3.80;1.45;;;18.10;54.60;;;;;;5118523;27;46671;-69
2023/06/05 00:09:17;;;;;;;12.25;1.40;;;18.10;54.90;;;;;;5126945;27;45363;-69
2023/06/05 00:11:45;;;;;;;3.13;1.50;;;18.10;55.40;;;;;;5127907;27;45375;-70
2023/06/05 00:14:12;;;;;;;2.88;1.27;;;18.00;55.70;;;;;;5121401;27;45374;-69
2023/06/05 00:16:39;;;;;;;5.57;1.60;;;18.00;56.30;;;;;;5116305;27;48009;-69
2023/06/05 00:19:06;;;;;;;5.53;1.55;;;17.90;57.00;;;;;;5124858;27;45394;-70
2023/06/05 00:21:33;;;;;;;10.07;1.33;;;18.00;57.10;;;;;;5125488;27;45334;-69
2023/06/05 00:24:00;;;;;;;4.65;1.30;;;17.90;57.80;;;;;;5125832;27;45572;-69
2023/06/05 00:26:27;;;;;;;4.53;1.35;;;17.80;58.40;;;;;;5124500;27;45486;-69
2023/06/05 00:28:55;;;;;;;3.55;1.42;;;17.80;58.20;;;;;;5125183;27;45352;-69
2023/06/05 00:31:22;;;;;;;5.47;1.65;;;17.80;58.60;;;;;;5123396;27;45516;-69
2023/06/05 00:33:50;;;;;;;3.65;1.20;;;17.80;59.20;;;;;;5118576;27;45287;-69
2023/06/05 00:36:18;;;;;;;2.55;1.38;;;17.80;59.50;;;;;;5115957;27;48277;-69
2023/06/05 00:38:46;;;;;;;2.65;1.60;;;17.70;60.00;;;;;;5115604;27;45669;-70
2023/06/05 00:41:12;;;;;;;4.22;1.38;;;17.70;60.60;;;;;;5116921;27;45351;-69
2023/06/05 00:43:40;;;;;;;3.47;1.20;;;17.50;60.90;;;;;;5121548;27;45568;-69
2023/06/05 00:46:08;;;;;;;5.32;1.60;;;17.60;61.40;;;;;;5118230;27;47207;-69
2023/06/05 00:48:35;;;;;;;6.95;1.80;;;17.50;61.70;;;;;;5118788;27;45479;-69
2023/06/05 00:51:02;;;;;;;5.50;1.77;;;17.50;62.10;;;;;;5119568;27;45481;-70
2023/06/05 00:53:33;;;;;;;3.45;1.52;;;17.50;62.40;;;;;;5117950;27;45627;-69
2023/06/05 00:56:01;;;;;;;3.08;1.23;;;17.50;62.70;;;;;;5115917;27;48473;-70
2023/06/05 00:58:29;;;;;;;3.63;1.38;;;17.50;62.40;;;;;;5119107;27;45671;-69
2023/06/05 01:00:58;;;;;;;2.85;1.50;;;17.60;62.80;;;;;;5124827;27;45455;-69
2023/06/05 01:03:29;;;;;;;4.05;1.45;;;17.40;63.70;;;;;;5118640;27;45349;-70
2023/06/05 01:06:02;;;;;;;5.03;1.38;;;17.30;64.00;;;;;;5114060;27;48583;-69
2023/06/05 01:08:30;;;;;;;7.55;1.85;;;17.30;64.40;;;;;;5120355;27;45757;-69
2023/06/05 01:11:01;;;;;;;5.22;1.60;;;17.30;64.80;;;;;;5117982;27;45441;-70
2023/06/05 01:13:34;;;;;;;5.72;2.15;;;17.30;64.70;;;;;;5116799;27;45484;-70
2023/06/05 01:16:05;;;;;;;5.47;1.70;;;17.20;65.30;;;;;;5117439;27;46298;-69
2023/06/05 01:18:33;;;;;;;5.70;1.70;;;17.20;66.10;;;;;;5121103;27;45361;-69
2023/06/05 01:21:03;;;;;;;10.50;2.03;;;17.10;66.40;;;;;;5118299;27;45430;-69
2023/06/05 01:23:33;;;;;;;7.88;1.50;;;17.10;66.90;;;;;;5118203;27;45401;-69
2023/06/05 01:26:06;;;;;;;4.40;1.65;;;17.10;67.20;;;;;;5116380;27;48005;-69
2023/06/05 01:28:33;;;;;;;1.92;1.10;;;17.10;67.20;;;;;;5119381;27;46108;-69
2023/06/05 01:31:04;;;;;;;5.10;1.80;;;17.20;66.30;;;;;;5121633;27;45452;-69
2023/06/05 01:33:36;;;;;;;4.15;1.75;;;17.20;66.30;;;;;;5116658;27;45511;-69
2023/06/05 01:36:04;;;;;;;5.15;1.67;;;17.20;67.00;;;;;;5118605;27;47235;-69
2023/06/05 01:38:34;;;;;;;16.55;2.20;;;17.20;66.80;;;;;;5116594;27;45705;-69
2023/06/05 01:41:03;;;;;;;4.15;1.80;;;17.20;66.80;;;;;;5119287;27;45591;-69
2023/06/05 01:43:31;;;;;;;5.43;1.83;;;17.20;67.40;;;;;;5118682;27;45393;-69
2023/06/05 01:45:59;;;;;;;5.47;1.50;;;17.20;67.50;;;;;;5114091;27;45524;-69
2023/06/05 01:48:29;;;;;;;3.95;1.30;;;17.20;67.80;;;;;;5119115;27;45311;-69
2023/06/05 01:50:57;;;;;;;3.70;1.25;;;17.20;67.50;;;;;;5123793;27;45399;-69
2023/06/05 01:53:24;;;;;;;3.45;1.38;;;17.20;67.80;;;;;;5122698;27;45574;-69
2023/06/05 01:55:53;;;;;;;6.65;1.52;;;17.20;68.00;;;;;;5118232;27;45465;-69
2023/06/05 01:58:22;;;;;;;5.60;1.58;;;17.20;68.70;;;;;;5120795;27;45418;-69
2023/06/05 02:00:49;;;;;;;6.35;1.70;;;17.10;68.80;;;;;;5122381;27;45645;-69
2023/06/05 02:03:16;;;;;;;5.30;1.77;;;16.90;69.60;;;;;;5121404;27;45406;-69
2023/06/05 02:05:43;;;;;;;4.65;1.80;;;16.90;69.40;;;;;;5120142;27;46585;-69
2023/06/05 02:08:10;;;;;;;3.90;1.55;;;16.90;69.60;;;;;;5120354;27;45408;-70
2023/06/05 02:10:42;;;;;;;9.00;1.83;;;16.90;69.80;;;;;;5117169;27;45384;-69
2023/06/05 02:13:11;;;;;;;4.93;1.45;;;16.80;70.70;;;;;;5124127;27;45519;-69
2023/06/05 02:15:38;;;;;;;4.60;1.98;;;17.10;69.40;;;;;;5120520;27;45430;-69
2023/06/05 02:18:07;;;;;;;4.78;1.60;;;17.00;70.20;;;;;;5123988;27;45338;-69
2023/06/05 02:20:35;;;;;;;5.38;2.10;;;16.90;70.20;;;;;;5124112;27;45466;-69
2023/06/05 02:23:02;;;;;;;10.50;1.70;;;16.90;70.40;;;;;;5118536;27;45580;-70
2023/06/05 02:25:29;;;;;;;4.80;1.90;;;16.90;70.60;;;;;;5120373;27;47533;-69
2023/06/05 02:27:56;;;;;;;5.55;1.88;;;16.90;71.20;;;;;;5121533;27;45826;-69
2023/06/05 02:30:25;;;;;;;3.95;1.90;;;16.90;70.70;;;;;;5124121;27;45301;-69
2023/06/05 02:32:56;;;;;;;4.10;1.63;;;16.80;71.60;;;;;;5119540;27;45332;-69
2023/06/05 02:35:23;;;;;;;5.68;2.13;;;16.70;71.90;;;;;;5122121;27;48149;-69
2023/06/05 02:37:51;;;;;;;7.30;1.83;;;16.70;72.10;;;;;;5114669;27;45618;-69
2023/06/05 02:40:18;;;;;;;4.82;1.83;;;16.60;72.30;;;;;;5118687;27;45386;-69
2023/06/05 02:42:45;;;;;;;6.38;1.70;;;16.50;72.80;;;;;;5122907;27;45753;-69
2023/06/05 02:45:11;;;;;;;3.30;1.73;;;16.50;72.80;;;;;;5119610;27;46075;-70
2023/06/05 02:47:39;;;;;;;8.05;1.80;;;16.50;72.80;;;;;;5122237;27;45815;-69
2023/06/05 02:50:08;;;;;;;7.30;2.60;;;16.50;73.10;;;;;;5119325;27;45399;-69
2023/06/05 02:52:35;;;;;;;7.22;1.95;;;16.50;73.30;;;;;;5106661;27;45423;-69
2023/06/05 02:55:04;;;;;;;7.97;2.03;;;16.50;73.40;;;;;;5116195;27;47246;-70
2023/06/05 02:57:33;;;;;;;4.68;1.95;;;16.50;73.60;;;;;;5118363;27;45370;-69
2023/06/05 03:00:03;;;;;;;5.13;1.90;;;16.50;73.30;;;;;;5109095;27;45409;-70
2023/06/05 03:02:30;;;;;;;5.47;1.77;;;16.40;74.50;;;;;;5113953;27;45431;-69
2023/06/05 03:04:58;;;;;;;4.35;1.88;;;16.30;74.00;;;;;;5112534;27;45308;-69
2023/06/05 03:07:25;;;;;;;4.13;2.05;;;16.30;74.20;;;;;;5122733;27;45399;-70
2023/06/05 03:09:51;;;;;;;4.38;1.98;;;16.20;75.00;;;;;;5116038;27;45377;-69
2023/06/05 03:12:18;;;;;;;5.15;2.28;;;16.30;74.90;;;;;;5115191;27;45310;-69
2023/06/05 03:14:45;;;;;;;6.60;1.92;;;16.20;75.00;;;;;;5116054;27;46423;-69
2023/06/05 03:17:12;;;;;;;3.92;1.70;;;16.30;75.00;;;;;;5122988;27;45252;-69
2023/06/05 03:19:38;;;;;;;8.68;2.00;;;16.30;75.00;;;;;;5112298;27;45348;-69
2023/06/05 03:22:07;;;;;;;8.25;2.00;;;16.40;73.90;;;;;;5109208;27;45413;-69
2023/06/05 03:24:37;;;;;;;7.25;2.22;;;16.40;74.00;;;;;;5114722;27;47192;-69
2023/06/05 03:27:05;;;;;;;4.28;1.73;;;16.40;73.80;;;;;;5116845;27;45443;-69
2023/06/05 03:29:32;;;;;;;4.20;1.98;;;16.50;73.30;;;;;;5117550;27;45304;-69
2023/06/05 03:31:58;;;;;;;10.90;2.05;;;16.40;74.30;;;;;;5110544;27;45413;-70
2023/06/05 03:34:25;;;;;;;6.40;2.30;;;16.40;73.90;;;;;;5111040;27;46763;-69
2023/06/05 03:36:52;;;;;;;7.63;2.45;;;16.30;74.20;;;;;;5118226;27;45472;-69
2023/06/05 03:39:21;;;;;;;4.25;1.80;;;16.20;75.00;;;;;;5120691;27;45265;-69
2023/06/05 03:41:47;;;;;;;4.20;2.10;;;16.10;74.90;;;;;;5110742;27;45283;-69
2023/06/05 03:44:14;;;;;;;6.10;2.08;;;16.20;74.90;;;;;;5117228;27;45479;-69
2023/06/05 03:46:41;;;;;;;6.57;2.05;;;16.10;74.80;;;;;;5119375;27;45562;-69
2023/06/05 03:49:09;;;;;;;5.43;2.08;;;16.10;74.80;;;;;;5118368;27;45404;-69
2023/06/05 03:51:36;;;;;;;9.00;2.10;;;16.20;74.90;;;;;;5121960;27;45617;-70
2023/06/05 03:54:04;;;;;;;5.57;2.50;;;16.10;74.90;;;;;;5118975;27;45515;-69
2023/06/05 03:56:34;;;;;;;6.70;2.45;;;16.00;75.00;;;;;;5123184;27;45496;-69
2023/06/05 03:59:08;;;;;;;5.45;2.25;;;16.20;75.00;;;;;;5120787;27;45560;-69
2023/06/05 04:01:37;;;;;;;4.47;2.05;;;16.00;74.80;;;;;;5125443;27;45381;-69
2023/06/05 04:04:04;;;;;;;4.38;2.00;;;16.00;75.20;;;;;;5120284;27;47682;-69
2023/06/05 04:06:32;;;;;;;4.43;2.00;;;16.10;74.90;;;;;;5120044;27;45402;-69
2023/06/05 04:08:58;;;;;;;5.07;1.92;;;16.00;75.30;;;;;;5122993;27;45544;-69
2023/06/05 04:11:26;;;;;;;3.45;2.10;;;15.90;75.70;;;;;;5119176;27;45549;-69
2023/06/05 04:13:54;;;;;;;6.25;2.25;;;16.00;75.50;;;;;;5114917;27;47575;-69
2023/06/05 04:16:22;;;;;;;7.13;2.22;;;16.00;75.50;;;;;;5123806;27;45513;-69
2023/06/05 04:18:49;;;;;;;4.55;2.17;;;16.00;75.60;;;;;;5119883;27;45364;-69
2023/06/05 04:21:15;;;;;;;5.97;2.25;;;15.90;76.30;;;;;;5123610;27;45438;-69
2023/06/05 04:23:42;;;;;;;7.35;2.28;;;15.90;76.20;;;;;;5113571;27;47730;-69
2023/06/05 04:26:09;;;;;;;6.82;1.85;;;15.90;76.40;;;;;;5119415;27;45271;-69
2023/06/05 04:28:35;;;;;;;5.43;1.85;;;15.80;76.60;;;;;;5121693;27;45516;-69
2023/06/05 04:31:04;;;;;;;5.25;1.90;;;16.20;74.90;;;;;;5112855;27;45465;-69
2023/06/05 04:33:30;;;;;;;4.18;1.75;;;16.70;72.80;;;;;;5114198;27;47505;-70
2023/06/05 04:35:57;;;;;;;3.85;1.80;;;16.80;72.00;;;;;;5120304;27;45384;-70
2023/06/05 04:38:24;;;;;;;4.07;1.73;;;16.90;71.50;;;;;;5124419;27;45457;-70
2023/06/05 04:40:51;;;;;;;4.35;2.20;;;17.00;71.00;;;;;;5124705;27;45611;-70
2023/06/05 04:43:18;;;;;;;5.20;2.08;;;17.10;70.80;;;;;;5117496;27;45397;-69
2023/06/05 04:45:45;;;;;;;7.32;2.05;;;17.10;71.00;;;;;;5114987;27;45577;-70
2023/06/05 04:48:14;;;;;;;5.65;2.22;;;17.10;70.90;;;;;;5110151;27;45666;-70
2023/06/05 04:50:42;;;;;;;4.35;1.98;;;17.10;71.90;;;;;;5119031;27;45406;-70
2023/06/05 04:53:08;;;;;;;8.25;1.98;;;17.10;70.70;;;;;;5115630;27;47272;-69
2023/06/05 04:55:35;;;;;;;4.43;1.80;;;17.10;70.60;;;;;;5119547;27;45447;-70
2023/06/05 04:58:04;;;;;;;6.65;1.95;;;17.20;70.30;;;;;;5124418;27;45465;-69
2023/06/05 05:00:31;;;;;;;4.35;2.00;;;17.20;70.20;;;;;;5114576;27;45381;-70
2023/06/05 05:02:59;;;;;;;5.25;2.20;;;17.20;70.50;;;;;;5118189;27;45413;-69
2023/06/05 05:05:27;;;;;;;4.80;1.95;;;17.20;70.30;;;;;;5120071;27;45421;-69
2023/06/05 05:07:54;;;;;;;4.55;2.00;;;17.30;70.30;;;;;;5119189;27;45366;-69
2023/06/05 05:10:21;;;;;;;4.10;2.03;;;17.30;70.20;;;;;;5125603;27;45629;-69
2023/06/05 05:12:48;;;;;;;6.10;2.00;;;17.30;70.10;;;;;;5122053;27;47516;-70
2023/06/05 05:15:14;;;;;;;5.18;2.50;;;17.30;69.80;;;;;;5122765;27;45361;-69
2023/06/05 05:17:41;;;;;;;7.70;2.00;;;17.40;69.70;;;;;;5121387;27;45500;-69
2023/06/05 05:20:08;;;;;;;5.72;2.10;;;17.40;69.90;;;;;;5117424;27;45470;-69
2023/06/05 05:22:37;;;;;;;4.22;2.00;;;17.40;69.40;;;;;;5114949;27;45527;-69
2023/06/05 05:25:04;;;;;;;3.63;1.73;;;17.40;69.70;;;;;;5123846;27;45488;-69
2023/06/05 05:27:31;;;;;;;4.03;2.03;;;17.40;69.80;;;;;;5120744;27;45435;-69
2023/06/05 05:29:57;;;;;;;8.13;2.28;;;17.40;69.70;;;;;;5120404;27;45295;-69
2023/06/05 05:32:24;;;;;;;8.80;1.92;;;17.30;70.00;;;;;;5120044;27;47514;-70
2023/06/05 05:34:51;;;;;;;5.22;2.28;;;17.40;70.10;;;;;;5121808;27;45842;-69
2023/06/05 05:37:18;;;;;;;5.47;2.20;;;17.40;70.20;;;;;;5115631;27;45415;-69
2023/06/05 05:39:46;;;;;;;7.35;2.60;;;17.40;70.10;;;;;;5114069;27;45260;-69
2023/06/05 05:42:13;;;;;;;7.75;2.40;;;17.40;70.00;;;;;;5118762;27;46590;-69
2023/06/05 05:44:42;;;;;;;3.22;1.95;;;17.50;69.60;;;;;;5119958;27;45361;-69
2023/06/05 05:47:08;;;;;;;3.78;2.15;;;17.60;69.20;;;;;;5115648;27;45462;-69
2023/06/05 05:49:35;;;;;;;4.82;2.35;;;17.60;69.30;;;;;;5121737;27;45394;-68
2023/06/05 05:52:02;;;;;;;5.15;1.92;;;17.60;69.20;;;;;;5115866;27;46589;-69
2023/06/05 05:54:29;;;;;;;6.90;2.60;;;17.60;69.40;;;;;;5113760;27;45311;-69
2023/06/05 05:56:57;;;;;;;5.60;2.20;;;17.70;68.90;;;;;;5113980;27;45287;-70
2023/06/05 05:59:23;;;;;;;4.40;2.17;;;17.80;68.90;;;;;;5115995;27;45449;-69
2023/06/05 06:01:50;;;;;;;2.67;2.03;;;17.80;68.70;;;;;;5112590;27;46678;-69
2023/06/05 06:04:18;;;;;;;4.40;2.65;;;17.90;68.20;;;;;;5118112;27;45343;-69
2023/06/05 06:06:47;;;;;;;11.00;2.20;;;17.90;68.30;;;;;;5108761;27;45503;-69
2023/06/05 06:09:15;;;;;;;9.65;2.80;;;17.80;69.60;;;;;;5124719;27;45353;-69
2023/06/05 06:11:43;;;;;;;7.75;2.17;;;17.80;69.90;;;;;;5116260;27;46360;-69
2023/06/05 06:14:12;;;;;;;7.75;2.63;;;17.90;68.60;;;;;;5120833;27;46124;-69
2023/06/05 06:16:38;;;;;;;7.82;2.83;;;18.00;69.00;;;;;;5113749;27;45494;-69
2023/06/05 06:19:05;;;;;;;8.30;2.70;;;18.00;68.40;;;;;;5114280;27;45370;-69
2023/06/05 06:21:33;;;;;;;4.63;2.10;;;17.90;68.50;;;;;;5114885;27;46591;-69
2023/06/05 06:23:59;;;;;;;5.82;2.15;;;17.90;68.70;;;;;;5117910;27;45727;-69
2023/06/05 06:26:26;;;;;;;4.85;2.10;;;17.90;68.70;;;;;;5120820;27;45585;-69
2023/06/05 06:28:57;;;;;;;8.50;2.80;;;18.00;68.10;;;;;;5114366;27;45645;-69
2023/06/05 06:31:25;;;;;;;5.10;2.65;;;18.00;68.00;;;;;;5115803;27;46261;-69
2023/06/05 06:33:52;;;;;;;3.97;2.28;;;18.00;68.50;;;;;;5113956;27;45456;-70
2023/06/05 06:36:19;;;;;;;5.93;2.60;;;18.00;68.00;;;;;;5122057;27;45419;-69
2023/06/05 06:38:46;;;;;;;4.63;2.67;;;18.20;68.00;;;;;;5120621;27;45620;-69
2023/06/05 06:41:13;;;;;;;4.95;2.50;;;18.30;67.90;;;;;;5123236;27;45456;-69
2023/06/05 06:43:40;;;;;;;10.98;2.42;;;18.20;67.80;;;;;;5119673;27;45445;-69
2023/06/05 06:46:07;;;;;;;7.53;2.78;;;18.10;68.10;;;;;;5113813;27;45556;-69
2023/06/05 06:48:35;;;;;;;6.88;2.65;;;18.10;68.30;;;;;;5122698;27;45336;-70
2023/06/05 06:51:03;;;;;;;7.57;2.80;;;18.10;68.10;;;;;;5113040;27;47587;-69
2023/06/05 06:53:30;;;;;;;8.40;3.05;;;18.10;68.10;;;;;;5121620;27;46444;-68
2023/06/05 06:55:57;;;;;;;4.85;2.40;;;18.10;68.20;;;;;;5115147;27;45335;-70
2023/06/05 06:58:24;;;;;;;6.07;2.78;;;18.10;68.60;;;;;;5122152;27;45549;-70
2023/06/05 07:00:51;;;;;;;4.75;2.33;;;18.00;68.90;;;;;;5116726;27;46422;-69
2023/06/05 07:03:17;;;;;;;8.57;3.22;;;18.10;68.80;;;;;;5119901;27;45442;-69
2023/06/05 07:05:45;;;;;;;5.57;2.70;;;18.00;68.50;;;;;;5122717;27;45449;-69
2023/06/05 07:08:12;;;;;;;7.63;3.03;;;18.10;68.80;;;;;;5120721;27;45410;-69
2023/06/05 07:10:40;;;;;;;9.82;2.80;;;18.20;68.40;;;;;;5122614;27;45484;-69
2023/06/05 07:13:07;;;;;;;6.55;2.83;;;18.30;68.30;;;;;;5121282;27;45947;-69
2023/06/05 07:15:34;;;;;;;5.88;2.40;;;18.30;67.90;;;;;;5119867;27;45476;-69
2023/06/05 07:18:01;;;;;;;4.80;2.38;;;18.30;67.70;;;;;;5109437;27;45627;-70
2023/06/05 07:20:28;;;;;;;5.40;2.30;;;18.40;67.50;;;;;;5117770;27;46427;-69
2023/06/05 07:22:56;;;;;;;5.32;2.17;;;18.40;67.90;;;;;;5124666;27;45396;-69
2023/06/05 07:25:24;;;;;;;6.07;2.22;;;18.40;66.90;;;;;;5125069;27;45274;-69
2023/06/05 07:27:51;;;;;;;3.47;2.33;;;18.50;66.60;;;;;;5122673;27;45379;-69
2023/06/05 07:30:18;;;;;;;6.97;2.47;;;18.60;66.40;;;;;;5125940;27;47180;-69
2023/06/05 07:32:45;;;;;;;8.95;2.40;;;18.40;68.00;;;;;;5125788;27;45337;-69
2023/06/05 07:35:14;;;;;;;5.35;2.58;;;18.40;66.80;;;;;;5124390;27;45567;-69
2023/06/05 07:37:41;;;;;;;3.15;1.83;;;18.40;67.00;;;;;;5124075;27;45257;-69
2023/06/05 07:40:10;;;;;;;2.75;1.85;;;18.40;67.10;;;;;;5119062;27;47329;-69
2023/06/05 07:42:37;;;;;;;9.77;2.35;;;18.60;66.30;;;;;;5125397;27;45236;-69
2023/06/05 07:45:04;;;;;;;3.72;2.13;;;18.60;65.90;;;;;;5123554;27;45347;-69
2023/06/05 07:47:31;;;;;;;6.82;2.05;;;18.60;66.40;;;;;;5122788;27;45242;-69
2023/06/05 07:49:58;;;;;;;5.57;2.30;;;18.70;65.80;;;;;;5126447;27;46211;-69
2023/06/05 07:52:25;;;;;;;4.28;1.85;;;18.70;66.10;;;;;;5125029;27;45487;-70
2023/06/05 07:54:52;;;;;;;3.83;1.85;;;18.70;65.90;;;;;;5126258;27;45526;-69
2023/06/05 07:57:20;;;;;;;8.23;1.95;;;18.80;65.30;;;;;;5125567;27;45371;-69
2023/06/05 07:59:48;;;;;;;3.25;1.83;;;18.70;65.90;;;;;;5122220;27;47002;-69
2023/06/05 08:02:16;;;;;;;4.28;2.15;;;18.70;65.60;;;;;;5120232;27;45381;-69
2023/06/05 08:04:43;;;;;;;8.70;2.22;;;18.70;65.70;;;;;;5115188;27;45438;-69
2023/06/05 08:07:09;;;;;;;2.88;1.90;;;18.70;65.90;;;;;;5122388;27;45369;-69
2023/06/05 08:09:37;;;;;;;6.82;2.25;;;18.80;66.00;;;;;;5124790;27;46040;-69
2023/06/05 08:12:04;;;;;;;6.95;2.03;;;18.80;65.40;;;;;;5122809;27;45501;-69
2023/06/05 08:14:32;;;;;;;5.45;2.20;;;18.80;65.60;;;;;;5125375;27;45453;-69
2023/06/05 08:16:59;;;;;;;3.92;2.17;;;18.80;65.40;;;;;;5125301;27;45283;-69
2023/06/05 08:19:26;;;;;;;3.83;1.70;;;18.80;65.10;;;;;;5121298;27;47143;-69
2023/06/05 08:21:56;;;;;;;2.47;1.70;;;18.90;65.10;;;;;;5112815;27;45446;-69
2023/06/05 08:24:23;;;;;;;6.05;1.80;;;18.90;65.40;;;;;;5105393;27;45284;-69
2023/06/05 08:26:50;;;;;;;6.85;1.98;;;18.80;64.90;;;;;;5124440;27;45518;-69
2023/06/05 08:29:17;;;;;;;5.28;1.98;;;18.80;64.80;;;;;;5113626;27;46325;-69
2023/06/05 08:31:45;;;;;;;4.72;2.10;;;18.90;64.80;;;;;;5116742;27;45544;-69
2023/06/05 08:34:12;;;;;;;6.25;2.25;;;18.80;64.70;;;;;;5121818;27;45459;-69
2023/06/05 08:36:38;;;;;;;5.28;1.88;;;18.80;64.60;;;;;;5124125;27;45428;-69
2023/06/05 08:39:05;;;;;;;2.88;1.40;;;18.90;64.20;;;;;;5119026;27;46595;-69
2023/06/05 08:41:34;;;;;;;5.28;1.77;;;18.80;64.00;;;;;;5115729;27;45477;-69
2023/06/05 08:44:00;;;;;;;8.07;1.90;;;18.90;64.00;;;;;;5117303;27;45542;-69
2023/06/05 08:46:30;;;;;;;4.25;1.67;;;19.00;63.50;;;;;;5123968;27;45217;-69
2023/06/05 08:48:58;;;;;;;7.03;2.33;;;19.00;63.50;;;;;;5125532;27;46546;-69
2023/06/05 08:51:25;;;;;;;3.38;1.77;;;19.00;62.80;;;;;;5124221;27;45326;-69
2023/06/05 08:53:57;;;;;;;8.95;2.25;;;18.90;63.30;;;;;;5117348;27;45415;-69
2023/06/05 08:56:25;;;;;;;6.32;2.05;;;19.00;63.50;;;;;;5122976;27;45438;-69
2023/06/05 08:58:53;;;;;;;7.30;2.15;;;19.00;63.50;;;;;;5108075;27;46300;-68
2023/06/05 09:01:20;;;;;;;6.53;2.08;;;19.00;63.10;;;;;;5123242;27;45449;-69
2023/06/05 09:03:47;;;;;;;3.53;1.98;;;19.10;62.90;;;;;;5123723;27;45301;-69
2023/06/05 09:06:15;;;;;;;7.40;2.13;;;19.10;62.90;;;;;;5123623;27;45466;-69
2023/06/05 09:08:42;;;;;;;9.38;2.20;;;19.10;63.10;;;;;;5115652;27;47244;-69
2023/06/05 09:11:26;;;;;;;7.93;2.00;;;19.10;62.60;;;;;;5121235;27;45392;-69
2023/06/05 09:13:56;;;;;;;5.78;2.33;;;19.20;63.10;;;;;;5119598;27;45500;-69
2023/06/05 09:16:23;;;;;;;3.83;1.90;;;19.20;63.40;;;;;;5123155;27;45411;-69
2023/06/05 09:18:55;;;;;;;11.07;2.75;;;19.30;61.70;;;;;;5124456;27;48232;-69
2023/06/05 09:21:28;;;;;;;3.58;1.70;;;19.30;62.20;;;;;;5119553;27;46087;-68
2023/06/05 09:24:12;;;;;;;7.78;2.38;;;19.30;61.90;;;;;;5112328;27;45393;-70
2023/06/05 09:26:50;;;;;;;7.28;2.00;;;19.30;62.50;;;;;;5122940;27;45573;-69
2023/06/05 09:29:22;;;;;;;3.15;1.65;;;19.30;61.20;;;;;;5117584;27;46536;-69
2023/06/05 09:31:49;;;;;;;6.07;1.92;;;19.30;61.40;;;;;;5116112;27;45189;-69
2023/06/05 09:34:27;;;;;;;7.18;2.50;;;19.40;61.30;;;;;;5125109;27;45322;-69
2023/06/05 09:36:57;;;;;;;6.75;2.10;;;19.30;61.70;;;;;;5116214;27;45360;-69
2023/06/05 09:39:26;;;;;;;4.47;2.03;;;19.40;61.40;;;;;;5123025;27;48494;-69
2023/06/05 09:41:53;;;;;;;5.97;1.73;;;19.40;60.10;;;;;;5113736;27;45550;-69
2023/06/05 09:44:20;;;;;;;6.97;1.80;;;19.50;60.20;;;;;;5116983;27;45256;-69
2023/06/05 09:46:58;;;;;;;5.28;1.92;;;19.50;59.20;;;;;;5116274;27;45492;-69
2023/06/05 09:49:26;;;;;;;5.75;1.40;;;19.40;60.00;;;;;;5112162;27;47204;-69
2023/06/05 09:51:56;;;;;;;5.72;1.90;;;19.40;60.50;;;;;;5113894;27;45425;-69
2023/06/05 09:54:25;;;;;;;6.72;2.00;;;19.40;60.20;;;;;;5116437;27;45391;-69
2023/06/05 09:56:57;;;;;;;5.18;2.13;;;19.40;60.90;;;;;;5119468;27;45435;-69
2023/06/05 09:59:29;;;;;;;2.88;1.80;;;19.50;60.30;;;;;;5115535;27;46548;-69
2023/06/05 10:01:57;;;;;;;5.13;1.70;;;19.50;60.10;;;;;;5107373;27;45391;-69
2023/06/05 10:04:26;;;;;;;5.65;1.52;;;19.50;59.70;;;;;;5115957;27;45343;-69
2023/06/05 10:07:00;;;;;;;6.03;1.50;;;19.40;59.00;;;;;;5115138;27;45417;-69
2023/06/05 10:09:29;;;;;;;3.88;1.45;;;19.50;59.80;;;;;;5121321;27;48026;-69
2023/06/05 10:11:56;;;;;;;7.68;1.80;;;19.60;59.00;;;;;;5112672;27;45374;-67
2023/06/05 10:14:23;;;;;;;3.50;1.48;;;19.60;57.40;;;;;;5117735;27;45407;-70
2023/06/05 10:16:51;;;;;;;4.57;2.00;;;19.70;56.60;;;;;;5118283;27;45417;-69
2023/06/05 10:19:19;;;;;;;2.58;1.58;;;19.80;57.40;;;;;;5112823;27;46353;-68
2023/06/05 10:21:49;;;;;;;5.53;1.80;;;19.60;57.80;;;;;;5111847;27;45271;-69
2023/06/05 10:24:21;;;;;;;7.82;1.85;;;19.50;57.40;;;;;;5118221;27;45402;-69
2023/06/05 10:27:18;;;;;;;6.50;1.70;;;19.60;57.10;;;;;;5110626;27;45226;-69
2023/06/05 10:30:06;;;;;;;10.90;2.22;;;19.70;57.00;;;;;;5089943;27;47504;-66
2023/06/05 10:32:41;;;;;;;4.78;1.70;;;19.60;57.50;;;;;;5103599;27;45524;-67
2023/06/05 10:35:20;;;;;;;5.38;2.00;;;19.80;55.00;;;;;;5121717;27;45261;-69
2023/06/05 10:38:03;;;;;;;5.05;2.17;;;19.80;55.90;;;;;;5115178;27;45383;-69
2023/06/05 10:40:32;;;;;;;4.22;1.60;;;19.70;57.00;;;;;;5110234;27;46553;-68
2023/06/05 10:43:30;;;;;;;6.82;1.77;;;19.80;56.70;;;;;;5111336;27;45425;-68
2023/06/05 10:45:58;;;;;;;3.88;1.60;;;19.80;55.50;;;;;;5122700;27;45306;-68
2023/06/05 10:48:58;;;;;;;3.47;1.40;;;19.60;55.30;;;;;;5115347;27;45236;-69
2023/06/05 10:51:37;;;;;;;3.00;1.20;;;19.50;55.10;;;;;;5112412;27;47521;-68
2023/06/05 10:54:05;;;;;;;4.28;1.30;;;19.50;55.30;;;;;;5109440;27;45275;-68
2023/06/05 10:57:01;;;;;;;3.75;1.52;;;19.50;55.80;;;;;;5118339;27;45570;-70
2023/06/05 10:59:30;;;;;;;3.13;1.30;;;19.40;56.60;;;;;;5116251;27;46357;-68
2023/06/05 11:02:26;;;;;;;6.93;1.63;;;19.50;55.80;;;;;;5126905;27;45257;-68
2023/06/05 11:05:14;;;;;;;4.13;1.75;;;19.50;53.70;;;;;;5120836;27;45366;-67
2023/06/05 11:07:43;;;;;;;3.42;1.17;;;19.60;53.80;;;;;;5129531;27;45883;-67
2023/06/05 11:10:15;;;;;;;2.60;1.23;;;19.70;53.90;;;;;;5127563;27;45454;-69
2023/06/05 11:13:00;;;;;;;4.20;1.30;;;19.60;55.20;;;;;;5122297;27;47275;-67
2023/06/05 11:15:42;;;;;;;2.20;1.58;;;19.70;53.90;;;;;;5122404;27;45375;-68
2023/06/05 11:18:35;;;;;;;4.60;1.70;;;19.80;53.80;;;;;;5120888;27;45428;-69
2023/06/05 11:21:02;;;;;;;6.88;1.60;;;19.70;53.30;;;;;;5114636;27;45522;-68
2023/06/05 11:23:30;;;;;;;2.97;1.60;;;19.90;51.60;;;;;;5123448;27;46442;-69
2023/06/05 11:25:59;;;;;;;2.75;1.58;;;20.00;51.70;;;;;;5125806;27;45567;-68
2023/06/05 11:28:48;;;;;;;4.80;1.45;;;19.70;52.30;;;;;;5117802;27;45348;-68
2023/06/05 11:31:29;;;;;;;2.13;1.35;;;19.60;48.50;;;;;;5120283;27;45182;-68
2023/06/05 11:33:56;;;;;;;4.63;1.92;;;19.80;52.50;;;;;;5109063;27;46644;-68
2023/06/05 11:36:24;;;;;;;4.85;1.70;;;19.80;51.20;;;;;;5126590;27;45510;-67
2023/06/05 11:38:54;;;;;;;3.53;1.35;;;19.80;51.90;;;;;;5122829;27;45510;-67
2023/06/05 11:41:21;;;;;;;3.20;1.60;;;19.80;52.10;;;;;;5110223;27;45503;-67
2023/06/05 11:43:49;;;;;;;3.22;1.60;;;19.70;54.30;;;;;;5113490;27;46459;-68
2023/06/05 11:46:16;;;;;;;3.67;1.58;;;19.60;54.40;;;;;;5121251;27;45434;-67
2023/06/05 11:48:46;;;;;;;4.70;1.45;;;19.60;53.80;;;;;;5114602;27;45652;-69
2023/06/05 11:51:13;;;;;;;4.20;1.50;;;19.60;53.90;;;;;;5117666;27;45399;-67
2023/06/05 11:53:47;;;;;;;8.48;1.55;;;19.40;54.40;;;;;;5119702;27;46111;-68
2023/06/05 11:56:16;;;;;;;3.25;1.40;;;19.60;54.80;;;;;;5121600;27;45367;-66
2023/06/05 11:58:44;;;;;;;7.45;1.70;;;19.70;51.10;;;;;;5109730;27;45331;-67
2023/06/05 12:01:17;;;;;;;3.00;1.55;;;19.60;50.70;;;;;;5126948;27;45401;-68
2023/06/05 12:03:44;;;;;;;3.42;1.65;;;19.60;47.50;;;;;;5124112;27;47756;-67
2023/06/05 12:06:13;;;;;;;3.80;1.63;;;19.80;48.60;;;;;;5125034;27;45319;-67
2023/06/05 12:08:40;;;;;;;1.83;1.38;;;19.70;51.40;;;;;;5116882;27;45491;-68
2023/06/05 12:11:21;;;;;;;8.77;1.55;;;19.90;52.50;;;;;;5124543;27;45502;-68
2023/06/05 12:13:50;;;;;;;1.90;1.45;;;19.90;51.80;;;;;;5123213;27;45484;-69
2023/06/05 12:16:19;;;;;;;5.72;1.42;;;19.80;49.80;;;;;;5122204;27;45479;-68
2023/06/05 12:18:47;;;;;;;1.83;1.40;;;19.80;51.20;;;;;;5119160;27;45421;-68
2023/06/05 12:21:22;;;;;;;4.00;1.73;;;19.80;49.20;;;;;;5122052;27;45327;-68
2023/06/05 12:23:49;;;;;;;3.25;1.65;;;19.70;48.80;;;;;;5117403;27;47168;-68
2023/06/05 12:26:16;;;;;;;6.15;1.70;;;19.80;52.20;;;;;;5122393;27;45760;-68
2023/06/05 12:28:44;;;;;;;3.40;1.40;;;19.80;52.30;;;;;;5124271;27;45551;-67
2023/06/05 12:31:11;;;;;;;4.07;1.30;;;19.90;53.40;;;;;;5118714;27;45553;-67
2023/06/05 12:33:50;;;;;;;2.88;1.50;;;20.00;52.50;;;;;;5121690;27;45373;-68
2023/06/05 12:36:17;;;;;;;5.25;1.60;;;20.00;49.50;;;;;;5114631;27;45579;-67
2023/06/05 12:38:45;;;;;;;2.38;1.90;;;20.00;51.80;;;;;;5118434;27;45408;-68
2023/06/05 12:41:12;;;;;;;4.93;1.55;;;20.00;49.70;;;;;;5114572;27;45332;-68
2023/06/05 12:43:39;;;;;;;2.33;1.35;;;20.00;50.80;;;;;;5116848;27;48016;-67
2023/06/05 12:46:07;;;;;;;3.67;1.50;;;20.00;49.80;;;;;;5115186;27;45408;-67
2023/06/05 12:48:34;;;;;;;2.40;1.60;;;19.90;51.40;;;;;;5114322;27;45308;-67
2023/06/05 12:51:02;;;;;;;2.33;1.50;;;19.90;50.50;;;;;;5121346;27;45518;-69
2023/06/05 12:53:29;;;;;;;3.60;1.73;;;19.90;52.10;;;;;;5122732;27;47238;-68
2023/06/05 12:55:56;;;;;;;2.35;1.50;;;19.90;50.40;;;;;;5113328;27;45643;-67